• Join FlightAware (Why Join?)
  • Login
  • US Flag 
07:40AM EDT


 

Airport Tracker/Info


-or-


 

Live Flight TrackerFlight Track Log ✈ UAL6136 ✈ 25-Apr-2013 ✈ KORD - KIAH

Flight Track Log - Related Links

Times and Time Zones

All times are in EDT time to prevent confusion due to time zone crossing. See the UAL6136 flight status page for this flight to view local times or setup timezone preferences in your user account.

Time Position Orientation Groundspeed Altitude Reporting Facility
EDT Latitude Longitude Course Direction KTS MPH feet Rate Location/Type
10:16PM 41.9320 -87.9240 224° Southwest 187 215 1,900  Level FlightAware
10:16PM 41.9120 -87.9480 222° Southwest 206 237 3,300 2,820 Climbing FlightAware
10:17PM 41.8900 -87.9680 214° Southwest 233 268 4,500 2,700 Climbing FlightAware
10:17PM 41.8790 -87.9700 188° South 244 281 4,900 3,000 Climbing FlightAware
10:17PM 41.8550 -87.9680 176° South 259 298 6,000 2,760 Climbing FlightAware
10:18PM 41.8240 -87.9650 176° South 284 327 7,000 2,700 Climbing FlightAware
10:18PM 41.7870 -87.9710 187° South 293 337 8,500 3,120 Climbing FlightAware
10:19PM 41.7240 -87.9800 186° South 309 356 10,900 2,880 Climbing FlightAware
10:19PM 41.6650 -87.9890 187° South 331 381 12,600 2,400 Climbing FlightAware
10:20PM 41.6030 -87.9990 187° South 359 413 14,100 2,640 Climbing FlightAware
10:21PM 41.5240 -88.0120 187° South 370 426 16,400 2,880 Climbing FlightAware
10:22PM 41.4550 -88.0220 186° South 381 438 18,200 2,520 Climbing FlightAware
10:22PM 41.3840 -88.0370 189° South 384 442 19,800 2,160 Climbing FlightAware
10:23PM 41.3100 -88.0740 201° Southwest 391 450 21,300 2,040 Climbing FlightAware
10:24PM 41.2430 -88.1160 205° Southwest 402 463 22,700 2,100 Climbing FlightAware
10:24PM 41.1680 -88.1630 205° Southwest 409 471 24,300 1,920 Climbing FlightAware
10:25PM 41.0970 -88.2080 206° Southwest 418 481 25,500 1,680 Climbing FlightAware
10:26PM 41.0300 -88.2500 205° Southwest 425 489 26,600 1,680 Climbing FlightAware
10:26PM 40.9450 -88.3020 205° Southwest 432 497 27,900 1,620 Climbing FlightAware
10:27PM 40.8740 -88.3470 206° Southwest 437 503 28,900 1,320 Climbing FlightAware
10:28PM 40.7930 -88.3970 205° Southwest 445 512 29,800 1,440 Climbing FlightAware
10:29PM 40.7170 -88.4430 205° Southwest 441 507 31,000 1,920 Climbing FlightAware
10:29PM 40.6590 -88.4790 205° Southwest 436 502 32,100 1,800 Climbing FlightAware
10:30PM 40.5900 -88.5220 205° Southwest 430 495 33,100 1,620 Climbing FlightAware
10:30PM 40.5060 -88.5740 205° Southwest 423 487 34,400 1,500 Climbing FlightAware
10:31PM 40.4350 -88.6170 205° Southwest 420 483 35,300 1,080 Climbing FlightAware
10:32PM 40.3640 -88.6610 205° Southwest 423 487 35,900 480 Climbing FlightAware
10:33PM 40.2850 -88.7090 205° Southwest 426 490 36,000 60 Climbing FlightAware
10:33PM 40.2110 -88.7540 205° Southwest 424 488 36,000  Level FlightAware
10:34PM 40.1360 -88.7990 205° Southwest 421 484 36,000  Level FlightAware
10:35PM 40.0600 -88.8450 205° Southwest 432 497 36,000  Level FlightAware
10:35PM 39.9890 -88.8880 205° Southwest 436 502 36,000  Level FlightAware
10:36PM 39.9060 -88.9380 205° Southwest 437 503 36,000  Level FlightAware
10:37PM 39.8310 -88.9830 205° Southwest 438 504 36,000  Level FlightAware
10:37PM 39.7490 -89.0320 205° Southwest 439 505 36,000  Level FlightAware
10:38PM 39.6730 -89.0780 205° Southwest 439 505 36,000  Level FlightAware
10:39PM 39.5910 -89.1260 204° Southwest 438 504 36,000  Level FlightAware
10:40PM 39.5230 -89.1670 205° Southwest 438 504 36,000  Level FlightAware
10:40PM 39.4480 -89.2110 204° Southwest 438 504 36,000  Level FlightAware
10:41PM 39.3650 -89.2600 205° Southwest 438 504 36,000  Level FlightAware
10:42PM 39.2900 -89.3040 204° Southwest 438 504 36,000  Level FlightAware
10:42PM 39.2170 -89.3480 205° Southwest 438 504 36,000  Level FlightAware
10:43PM 39.1290 -89.3990 204° Southwest 439 505 36,000  Level FlightAware
10:44PM 39.0680 -89.4350 205° Southwest 438 504 36,000  Level FlightAware
10:44PM 38.9740 -89.4900 204° Southwest 439 505 36,000  Level FlightAware
10:45PM 38.9080 -89.5280 204° Southwest 439 505 36,000  Level FlightAware
10:46PM 38.8020 -89.5900 205° Southwest 439 505 36,000  Level FlightAware
10:47PM 38.7350 -89.6290 204° Southwest 439 505 36,000  Level FlightAware
10:47PM 38.6410 -89.6830 204° Southwest 439 505 36,000  Level FlightAware
10:48PM 38.5780 -89.7200 205° Southwest 437 503 36,000  Level FlightAware
10:49PM 38.4830 -89.7740 204° Southwest 437 503 36,000  Level FlightAware
10:50PM 38.4110 -89.8160 205° Southwest 439 505 36,000  Level FlightAware
10:50PM 38.3410 -89.8560 204° Southwest 441 507 36,000  Level FlightAware
10:51PM 38.2530 -89.9060 204° Southwest 444 511 36,000  Level FlightAware
10:52PM 38.1750 -89.9510 204° Southwest 444 511 36,000  Level FlightAware
10:52PM 38.1110 -89.9870 204° Southwest 444 511 36,000  Level FlightAware
10:53PM 38.0470 -90.0230 204° Southwest 444 511 36,000  Level FlightAware
10:54PM 37.9830 -90.0590 204° Southwest 444 511 36,000  Level FlightAware
10:54PM 37.9190 -90.0950 204° Southwest 444 511 36,000  Level FlightAware
10:55PM 37.8560 -90.1310 204° Southwest 444 511 36,000  Level FlightAware
10:56PM 37.7760 -90.1760 204° Southwest 444 511 36,000  Level FlightAware
10:57PM 37.7120 -90.2120 204° Southwest 444 511 36,000  Level FlightAware
10:57PM 37.6480 -90.2480 204° Southwest 444 511 36,000  Level FlightAware
10:58PM 37.5840 -90.2840 204° Southwest 444 511 36,000  Level FlightAware
10:59PM 37.5050 -90.3280 204° Southwest 444 511 36,000  Level FlightAware
10:59PM 37.4410 -90.3640 204° Southwest 444 511 36,000  Level FlightAware
11:00PM 37.3770 -90.4000 204° Southwest 444 511 36,000  Level FlightAware
11:01PM 37.3130 -90.4360 204° Southwest 444 511 36,000  Level FlightAware
11:01PM 37.1422 -90.5989 204° Southwest 427 491 36,000  Level Memphis Center
11:02PM 37.0442 -90.6636 208° Southwest 416 479 36,000  Level Memphis Center
11:03PM 36.9439 -90.7308 208° Southwest 411 473 36,000  Level Memphis Center
11:04PM 36.8436 -90.7950 207° Southwest 411 473 36,000  Level Memphis Center
11:05PM 36.7331 -90.8411 198° South 416 479 36,000  Level Memphis Center
11:06PM 36.6225 -90.8869 198° South 422 486 36,000  Level Memphis Center
11:07PM 36.5117 -90.9328 198° South 427 491 36,000  Level Memphis Center
11:08PM 36.3989 -90.9758 197° South 427 491 36,000  Level Memphis Center
11:09PM 36.2883 -91.0211 198° South 427 491 36,000  Level Memphis Center
11:10PM 36.1753 -91.0667 198° South 427 491 36,000  Level Memphis Center
11:11PM 36.0647 -91.1119 198° South 427 491 36,000  Level Memphis Center
11:12PM 35.9539 -91.1544 197° South 427 491 36,000  Level Memphis Center
11:13PM 35.8431 -91.1969 197° South 427 491 36,000  Level Memphis Center
11:14PM 35.7344 -91.2394 198° South 427 491 36,000  Level Memphis Center
11:15PM 35.6317 -91.2867 200° South 407 468 36,000  Level Memphis Center
11:16PM 35.5250 -91.3289 198° South 407 468 36,000  Level Memphis Center
11:17PM 35.4267 -91.3686 198° South 407 468 36,000  Level Memphis Center
11:18PM 35.3097 -91.4106 196° South 407 468 36,000  Level Memphis Center
11:19PM 35.2008 -91.4547 198° South 407 468 36,000  Level Memphis Center
11:20PM 35.0939 -91.4942 197° South 407 468 36,000  Level Memphis Center
11:21PM 34.9831 -91.5383 198° South 407 468 36,000  Level Memphis Center
11:22PM 34.8992 -91.5700 197° South 407 468 36,000  Level Memphis Center
11:23PM 34.7819 -91.6239 201° Southwest 412 474 36,000  Level Memphis Center
11:24PM 34.6708 -91.6678 198° South 412 474 36,000  Level Memphis Center
11:25PM 34.5514 -91.7139 198° South 418 481 36,000  Level Memphis Center
11:26PM 34.4364 -91.7497 194° South 418 481 36,000  Level Memphis Center
11:27PM 34.3253 -91.7958 199° South 424 488 36,000  Level Memphis Center
11:28PM 34.2161 -91.8367 197° South 424 488 36,000  Level Memphis Center
11:29PM 34.1072 -91.8800 198° South 424 488 36,000  Level Memphis Center
11:31PM 33.9269 -91.9469 197° South 396 456 36,000  Level Fort Worth Center
11:32PM 33.8164 -91.9914 198° South 409 471 36,000  Level Fort Worth Center
11:33PM 33.7011 -92.0333 197° South 425 489 36,000  Level Fort Worth Center
11:34PM 33.5903 -92.0750 197° South 430 495 36,000  Level Fort Worth Center
11:35PM 33.4733 -92.1194 198° South 430 495 36,000  Level Fort Worth Center
11:36PM 33.3603 -92.1611 197° South 430 495 36,000  Level Fort Worth Center
11:37PM 33.2453 -92.2053 198° South 430 495 36,000  Level Fort Worth Center
11:38PM 33.1261 -92.2494 197° South 437 503 36,000  Level Fort Worth Center
11:44PM 32.4064 -92.5183 197° South 433 498 36,000  Level FlightAware ADS-B
11:46PM 32.1777 -92.6024 197° South 435 501 36,000  Level FlightAware ADS-B
11:52PM 31.6074 -93.0311 213° Southwest 413 475 36,000  Level FlightAware ADS-B
11:53PM 31.5610 -93.0758 219° Southwest 413 475 36,000  Level FlightAware ADS-B
11:53PM 31.5164 -93.1188 219° Southwest 412 474 36,000  Level FlightAware ADS-B
11:54PM 31.4635 -93.1696 219° Southwest 413 475 36,000  Level FlightAware ADS-B
11:54PM 31.4189 -93.2122 219° Southwest 412 474 36,000  Level FlightAware ADS-B
11:55PM 31.3735 -93.2557 219° Southwest 412 474 36,000  Level FlightAware ADS-B
11:55PM 31.3288 -93.2983 219° Southwest 412 474 36,000  Level FlightAware ADS-B
11:56PM 31.2839 -93.3412 219° Southwest 413 475 36,000  Level FlightAware ADS-B
11:56PM 31.2354 -93.3877 219° Southwest 414 476 36,000  Level FlightAware ADS-B
11:57PM 31.1900 -93.4308 219° Southwest 416 479 36,000  Level FlightAware ADS-B
11:57PM 31.1443 -93.4742 219° Southwest 417 480 36,000  Level FlightAware ADS-B
11:58PM 31.0991 -93.5171 219° Southwest 417 480 36,000  Level FlightAware ADS-B
11:58PM 31.0532 -93.5608 219° Southwest 418 481 36,000  Level FlightAware ADS-B
11:59PM 31.0081 -93.6037 219° Southwest 419 482 36,000 -240 Level FlightAware ADS-B
11:59PM 30.9629 -93.6463 219° Southwest 418 481 35,800 -1,020 Descending FlightAware ADS-B
12:00AM 30.9166 -93.6899 219° Southwest 413 475 35,000 -2,280 Descending FlightAware ADS-B
12:00AM 30.8721 -93.7319 219° Southwest 414 476 33,500 -3,300 Descending FlightAware ADS-B
12:01AM 30.8268 -93.7747 219° Southwest 424 488 31,700 -3,720 Descending FlightAware ADS-B
12:01AM 30.7805 -93.8183 219° Southwest 432 497 29,800 -3,840 Descending FlightAware ADS-B
12:02AM 30.7325 -93.8633 219° Southwest 439 505 27,800 -4,020 Descending FlightAware ADS-B
12:02AM 30.7240 -93.8714 219° Southwest 439 505 27,400 -4,020 Descending FlightAware ADS-B
12:02AM 30.6836 -93.9094 219° Southwest 443 510 25,800 -3,660 Descending FlightAware ADS-B
12:02AM 30.6640 -93.9278 219° Southwest 442 509 25,100 -3,120 Descending FlightAware ADS-B
12:03AM 30.6355 -93.9544 219° Southwest 437 503 24,200 -2,940 Descending FlightAware ADS-B
12:03AM 30.6141 -93.9744 219° Southwest 439 505 23,600 -2,940 Descending FlightAware ADS-B
12:03AM 30.5874 -93.9996 219° Southwest 437 503 22,700 -2,940 Descending FlightAware ADS-B
12:04AM 30.5540 -94.0310 219° Southwest 437 503 21,700 -2,820 Descending FlightAware ADS-B
12:04AM 30.5400 -94.0440 219° Southwest 434 499 21,300 -2,940 Descending FlightAware ADS-B
12:04AM 30.4932 -94.0877 219° Southwest 429 494 19,800 -3,000 Descending FlightAware ADS-B
12:04AM 30.4802 -94.0997 219° Southwest 427 491 19,400 -2,820 Descending FlightAware ADS-B
12:05AM 30.4472 -94.1304 219° Southwest 422 486 18,400 -2,940 Descending FlightAware ADS-B
12:05AM 30.4085 -94.1666 219° Southwest 417 480 17,100 -3,000 Descending FlightAware ADS-B
12:05AM 30.4017 -94.1729 219° Southwest 416 479 16,900 -3,120 Descending FlightAware ADS-B
12:06AM 30.3568 -94.2148 219° Southwest 413 475 15,300 -3,240 Descending FlightAware ADS-B
12:06AM 30.3123 -94.2562 219° Southwest 409 471 13,700 -3,120 Descending FlightAware ADS-B
12:06AM 30.3026 -94.2652 219° Southwest 408 470 13,400 -2,640 Descending FlightAware ADS-B
12:07AM 30.2683 -94.2970 219° Southwest 394 453 12,400 -2,160 Descending FlightAware ADS-B
12:07AM 30.2581 -94.3064 219° Southwest 379 436 12,300 -780 Descending FlightAware ADS-B
12:07AM 30.2281 -94.3341 219° Southwest 354 407 12,000 -900 Descending FlightAware ADS-B
12:08AM 30.2131 -94.3483 219° Southwest 343 395 11,800 -1,200 Descending FlightAware ADS-B
12:08AM 30.2097 -94.3523 225° Southwest 347 399 11,700 -1,200 Descending FlightAware ADS-B
12:08AM 30.2075 -94.3551 228° Southwest 338 389 11,700  Level FlightAware ADS-B
12:08AM 30.2033 -94.3616 233° Southwest 332 382 11,700  Level FlightAware ADS-B
12:08AM 30.2005 -94.3669 239° Southwest 334 384 11,700  Level FlightAware ADS-B
12:08AM 30.1969 -94.3755 244° Southwest 328 377 11,700  Level FlightAware ADS-B
12:08AM 30.1943 -94.3841 251° West 327 376 11,700  Level FlightAware ADS-B
12:08AM 30.1920 -94.3960 257° West 326 375 11,700  Level FlightAware ADS-B
12:08AM 30.1885 -94.4140 257° West 326 375 11,700  Level FlightAware ADS-B
12:08AM 30.1837 -94.4324 253° West 326 375 11,700  Level FlightAware ADS-B
12:08AM 30.1804 -94.4430 250° West 327 376 11,700 -480 Level FlightAware ADS-B
12:09AM 30.1762 -94.4546 247° West 326 375 11,600 -1,320 Descending FlightAware ADS-B
12:09AM 30.1669 -94.4809 248° West 320 368 11,200 -1,380 Descending FlightAware ADS-B
12:09AM 30.1558 -94.5115 247° West 314 361 10,800 -1,380 Descending FlightAware ADS-B
12:09AM 30.1500 -94.5276 247° West 309 356 10,500 -1,380 Descending FlightAware ADS-B
12:10AM 30.1390 -94.5574 247° West 300 345 10,100 -1,080 Descending FlightAware ADS-B
12:10AM 30.1344 -94.5698 247° West 297 342 10,000 -840 Descending FlightAware ADS-B
12:10AM 30.1308 -94.5795 247° West 293 337 9,900 -1,140 Descending FlightAware ADS-B
12:10AM 30.1263 -94.5919 247° West 290 334 9,700 -1,140 Descending FlightAware ADS-B
12:10AM 30.1225 -94.6023 247° West 288 331 9,600 -1,200 Descending FlightAware ADS-B
12:10AM 30.1185 -94.6131 247° West 284 327 9,400 -1,440 Descending FlightAware ADS-B
12:11AM 30.1137 -94.6264 247° West 282 325 9,200 -1,200 Descending FlightAware ADS-B
12:11AM 30.1109 -94.6341 247° West 280 322 9,100 -1,200 Descending FlightAware ADS-B
12:11AM 30.1034 -94.6547 247° West 278 320 8,800 -1,380 Descending FlightAware ADS-B
12:11AM 30.1019 -94.6588 247° West 279 321 8,700 -1,620 Descending FlightAware ADS-B
12:11AM 30.0958 -94.6754 247° West 280 322 8,400 -1,500 Descending FlightAware ADS-B
12:11AM 30.0939 -94.6803 246° West 280 322 8,300 -2,040 Descending FlightAware ADS-B
12:11AM 30.0910 -94.6883 247° West 280 322 8,100 -1,620 Descending FlightAware ADS-B
12:11AM 30.0863 -94.7009 247° West 279 321 7,900 -1,140 Descending FlightAware ADS-B
12:12AM 30.0832 -94.7093 247° West 279 321 7,800 -1,200 Descending FlightAware ADS-B
12:12AM 30.0786 -94.7219 247° West 277 319 7,600 -1,500 Descending FlightAware ADS-B
12:12AM 30.0750 -94.7315 247° West 276 318 7,400 -1,620 Descending FlightAware ADS-B
12:12AM 30.0710 -94.7424 247° West 275 316 7,200 -1,440 Descending FlightAware ADS-B
12:12AM 30.0686 -94.7490 247° West 273 314 7,100 -1,140 Descending FlightAware ADS-B
12:12AM 30.0634 -94.7632 247° West 272 313 6,900 -1,200 Descending FlightAware ADS-B
12:12AM 30.0612 -94.7691 247° West 271 312 6,800 -1,320 Descending FlightAware ADS-B
12:13AM 30.0538 -94.7894 247° West 269 310 6,500 -1,320 Descending FlightAware ADS-B
12:13AM 30.0521 -94.7941 247° West 269 310 6,400 -1,500 Descending FlightAware ADS-B
12:13AM 30.0464 -94.8096 247° West 267 307 6,100 -1,320 Descending FlightAware ADS-B
12:13AM 30.0430 -94.8189 247° West 267 307 6,000 -1,140 Descending FlightAware ADS-B
12:13AM 30.0387 -94.8308 247° West 266 306 5,800 -1,620 Descending FlightAware ADS-B
12:13AM 30.0357 -94.8391 247° West 265 305 5,600 -1,200 Descending FlightAware ADS-B
12:13AM 30.0314 -94.8505 246° West 264 304 5,500 -1,140 Descending FlightAware ADS-B
12:13AM 30.0284 -94.8588 247° West 264 304 5,300 -1,620 Descending FlightAware ADS-B
12:14AM 30.0243 -94.8699 247° West 261 300 5,100 -1,200 Descending FlightAware ADS-B
12:14AM 30.0211 -94.8785 247° West 261 300 5,000 -1,320 Descending FlightAware ADS-B
12:14AM 30.0177 -94.8876 247° West 260 299 4,800 -1,200 Descending FlightAware ADS-B
12:14AM 30.0139 -94.8979 247° West 259 298 4,700 -1,200 Descending FlightAware ADS-B
12:14AM 30.0105 -94.9070 247° West 259 298 4,500 -1,200 Descending FlightAware ADS-B
12:14AM 30.0068 -94.9172 247° West 257 296 4,400 -960 Descending FlightAware ADS-B
12:14AM 30.0044 -94.9236 247° West 256 295 4,300 -1,200 Descending FlightAware ADS-B
12:14AM 29.9999 -94.9359 247° West 252 290 4,100 -780 Descending FlightAware ADS-B
12:15AM 29.9975 -94.9424 247° West 251 289 4,100 -720 Level FlightAware ADS-B
12:15AM 29.9921 -94.9573 247° West 247 284 3,900 -1,200 Descending FlightAware ADS-B
12:15AM 29.9907 -94.9611 247° West 244 281 3,800 -840 Descending FlightAware ADS-B
12:15AM 29.9855 -94.9753 247° West 241 277 3,700 -420 Descending FlightAware ADS-B
12:15AM 29.9839 -94.9794 246° West 241 277 3,700  Level FlightAware ADS-B
12:15AM 29.9812 -94.9872 248° West 238 274 3,700  Level FlightAware ADS-B
12:15AM 29.9801 -94.9910 252° West 237 273 3,700  Level FlightAware ADS-B
12:15AM 29.9793 -94.9946 256° West 236 272 3,700  Level FlightAware ADS-B
12:15AM 29.9789 -94.9965 256° West 236 272 3,700  Level FlightAware ADS-B
12:15AM 29.9784 -94.9996 259° West 235 270 3,700  Level FlightAware ADS-B
12:15AM 29.9781 -95.0027 264° West 235 270 3,700  Level FlightAware ADS-B
12:15AM 29.9777 -95.0070 264° West 233 268 3,700  Level FlightAware ADS-B
12:15AM 29.9774 -95.0134 267° West 231 266 3,700  Level FlightAware ADS-B
12:16AM 29.9773 -95.0209 269° West 227 261 3,700  Level FlightAware ADS-B
12:16AM 29.9773 -95.0256 270° West 225 259 3,700  Level FlightAware ADS-B
12:16AM 29.9773 -95.0410 270° West 222 255 3,700  Level FlightAware ADS-B
12:16AM 29.9773 -95.0435 270° West 222 255 3,700  Level FlightAware ADS-B
12:16AM 29.9774 -95.0588 270° West 216 249 3,700  Level FlightAware ADS-B
12:16AM 29.9775 -95.0718 271° West 204 235 3,700 -420 Level FlightAware ADS-B
12:16AM 29.9776 -95.0763 271° West 202 232 3,600 -1,200 Descending FlightAware ADS-B
12:17AM 29.9775 -95.0879 269° West 202 232 3,400 -1,440 Descending FlightAware ADS-B
12:17AM 29.9775 -95.0910 270° West 203 234 3,300 -1,500 Descending FlightAware ADS-B
12:17AM 29.9775 -95.1019 270° West 205 236 3,100 -1,080 Descending FlightAware ADS-B
12:17AM 29.9775 -95.1089 270° West 205 236 3,000 -780 Descending FlightAware ADS-B
12:17AM 29.9775 -95.1185 270° West 202 232 2,900 -840 Descending FlightAware ADS-B
12:17AM 29.9775 -95.1255 270° West 201 231 2,800 -720 Descending FlightAware ADS-B
12:17AM 29.9775 -95.1289 270° West 201 231 2,800 -1,080 Level FlightAware ADS-B
12:17AM 29.9775 -95.1431 270° West 200 230 2,500 -1,080 Descending FlightAware ADS-B
12:17AM 29.9775 -95.1464 270° West 201 231 2,500 -1,080 Level FlightAware ADS-B
12:18AM 29.9775 -95.1613 270° West 204 235 2,200 -1,260 Descending FlightAware ADS-B
12:18AM 29.9775 -95.1786 270° West 206 237 1,900 -1,140 Descending FlightAware ADS-B
12:18AM 29.9775 -95.1790 270° West 206 237 1,900 -960 Level FlightAware ADS-B
12:18AM 29.9776 -95.2055 270° West 208 239 1,500 -1,080 Descending FlightAware ADS-B
12:19AM 29.9776 -95.2218 270° West 201 231 1,200 -1,200 Descending FlightAware ADS-B
12:19AM 29.9776 -95.2374 270° West 187 215 900 -1,020 Descending FlightAware ADS-B
12:19AM 29.9776 -95.2517 270° West 172 198 700 -1,020 Descending FlightAware ADS-B
12:19AM 29.9776 -95.2652 270° West 161 185 400 -1,080 Descending FlightAware ADS-B
12:20AM 29.9776 -95.2710 270° West 158 182 300 -720 Descending FlightAware ADS-B
12:20AM 29.9777 -95.2794 271° West 155 178 200 -600 Descending FlightAware ADS-B
12:20AM 29.9776 -95.2899 269° West 154 177 -960 Descending FlightAware ADS-B
12:28AM 29.9833 -95.3333 203° Southwest  Level FlightAware Approximate